Time;durP1;ratioP1;P1;durP2;ratioP2;P2;SDS_P1;SDS_P2;PMS_P1;PMS_P2;Temp;Humidity;BMP_temperature;BMP_pressure;BME280_temperature;BME280_humidity;BME280_pressure;Samples;Min_cycle;Max_cycle;Signal;HPM_P1;HPM_P2
2023/08/17 00:00:58;;;;;;;0.30;0.30;;;;;;;19.25;69.45;100454.16;5034710;28;20315;-75
2023/08/17 00:03:25;;;;;;;0.30;0.30;;;;;;;19.29;69.85;100451.59;5031146;28;20052;-75
2023/08/17 00:05:52;;;;;;;0.30;0.30;;;;;;;19.34;71.22;100460.56;5032574;28;20068;-76
2023/08/17 00:08:18;;;;;;;0.30;0.30;;;;;;;19.41;70.73;100451.78;5028656;28;20152;-75
2023/08/17 00:10:44;;;;;;;0.20;0.20;;;;;;;19.45;70.92;100457.53;5022017;28;20454;-72
2023/08/17 00:13:11;;;;;;;0.30;0.30;;;;;;;19.48;70.19;100454.94;5021226;28;20055;-75
2023/08/17 00:15:37;;;;;;;;;;;;;;;19.46;69.59;100464.69;5033405;28;20548;-74
2023/08/17 00:18:04;;;;;;;0.20;0.20;;;;;;;19.47;69.24;100461.63;5035393;28;20435;-75
2023/08/17 00:20:32;;;;;;;0.30;0.30;;;;;;;19.39;70.27;100452.13;5038474;28;20059;-74
2023/08/17 00:22:58;;;;;;;0.30;0.30;;;;;;;19.41;68.14;100468.44;5005244;28;20045;-74
2023/08/17 00:25:24;;;;;;;0.30;0.30;;;;;;;19.31;66.99;100458.44;5024815;28;20535;-74
2023/08/17 00:27:51;;;;;;;0.30;0.30;;;;;;;19.22;66.79;100469.47;5037960;28;20060;-76
2023/08/17 00:30:17;;;;;;;0.27;0.27;;;;;;;19.18;68.89;100476.78;5026621;28;20316;-73
2023/08/17 00:32:44;;;;;;;0.20;0.20;;;;;;;19.15;69.87;100480.19;5019195;28;20045;-75
2023/08/17 00:35:11;;;;;;;;;;;;;;;19.13;69.50;100479.69;5030291;28;20078;-74
2023/08/17 00:37:39;;;;;;;0.20;0.20;;;;;;;19.10;67.79;100477.53;5040681;28;20438;-74
2023/08/17 00:40:06;;;;;;;0.20;0.20;;;;;;;19.06;67.54;100479.31;5016696;28;20064;-75
2023/08/17 00:42:33;;;;;;;0.20;0.20;;;;;;;19.02;67.34;100481.88;5025657;28;20053;-74
2023/08/17 00:44:59;;;;;;;0.20;0.20;;;;;;;19.01;67.23;100479.44;5020649;28;20049;-74
2023/08/17 00:47:26;;;;;;;0.20;0.20;;;;;;;18.99;67.83;100471.44;5034063;28;20057;-75
2023/08/17 00:49:53;;;;;;;0.20;0.20;;;;;;;18.97;67.00;100474.53;5023170;28;20155;-75
2023/08/17 00:52:20;;;;;;;0.30;0.30;;;;;;;18.95;66.27;100479.53;5029741;28;20053;-75
2023/08/17 00:54:47;;;;;;;0.20;0.20;;;;;;;18.94;66.25;100475.13;5024898;28;20554;-75
2023/08/17 00:57:14;;;;;;;0.22;0.22;;;;;;;18.90;65.80;100478.88;5026298;28;20052;-75
2023/08/17 00:59:41;;;;;;;0.20;0.20;;;;;;;18.89;65.48;100474.44;5021873;28;20425;-76
2023/08/17 01:02:08;;;;;;;0.20;0.20;;;;;;;18.91;67.77;100475.75;5023367;28;20050;-74
2023/08/17 01:04:37;;;;;;;0.30;0.30;;;;;;;18.95;67.19;100470.41;5022919;28;20049;-74
2023/08/17 01:07:03;;;;;;;0.30;0.30;;;;;;;18.95;67.93;100468.44;5039776;28;20049;-74
2023/08/17 01:09:30;;;;;;;0.20;0.20;;;;;;;19.03;67.73;100477.19;5039940;28;20092;-73
2023/08/17 01:12:08;;;;;;;0.30;0.30;;;;;;;18.95;67.59;100482.31;5019250;28;20143;-74
2023/08/17 01:14:43;;;;;;;0.20;0.20;;;;;;;18.90;68.17;100487.97;5025958;28;20565;-74
2023/08/17 01:17:15;;;;;;;0.20;0.20;;;;;;;18.88;68.54;100486.66;5033421;28;20052;-74
2023/08/17 01:19:45;;;;;;;0.20;0.20;;;;;;;18.84;67.87;100483.72;5036036;28;20048;-75
2023/08/17 01:22:14;;;;;;;0.20;0.20;;;;;;;18.81;66.57;100481.53;5032895;28;20569;-74
2023/08/17 01:24:42;;;;;;;0.20;0.20;;;;;;;18.74;65.31;100476.47;5029988;28;20045;-74
2023/08/17 01:27:09;;;;;;;0.20;0.20;;;;;;;18.70;66.45;100480.97;5022812;28;20041;-74
2023/08/17 01:29:36;;;;;;;0.20;0.20;;;;;;;18.66;66.54;100480.81;5040641;28;20053;-74
2023/08/17 01:32:11;;;;;;;0.20;0.20;;;;;;;18.65;67.53;100475.56;5036174;28;20049;-75
2023/08/17 01:34:41;;;;;;;0.20;0.20;;;;;;;18.60;66.80;100484.00;5034859;28;20107;-74
2023/08/17 01:37:10;;;;;;;0.20;0.20;;;;;;;18.55;67.66;100482.16;5041280;28;20556;-74
2023/08/17 01:39:39;;;;;;;0.20;0.20;;;;;;;18.61;68.90;100471.78;5030378;28;20045;-70
2023/08/17 01:42:07;;;;;;;0.47;0.25;;;;;;;18.66;68.41;100479.97;5035585;28;20075;-71
2023/08/17 01:44:34;;;;;;;0.20;0.20;;;;;;;18.59;66.69;100483.16;5039504;28;20053;-72
2023/08/17 01:47:00;;;;;;;0.20;0.20;;;;;;;18.54;66.53;100478.56;5025077;28;20586;-71
2023/08/17 01:49:26;;;;;;;0.20;0.20;;;;;;;18.54;67.14;100480.53;5033999;28;20044;-69
2023/08/17 01:51:52;;;;;;;0.20;0.20;;;;;;;18.53;67.59;100481.66;5035627;28;20064;-71
2023/08/17 01:54:19;;;;;;;0.25;0.25;;;;;;;18.50;69.28;100483.09;5032736;28;20634;-72
2023/08/17 01:56:45;;;;;;;0.20;0.20;;;;;;;18.47;70.61;100478.19;5032258;28;20138;-71
2023/08/17 01:59:13;;;;;;;0.28;0.28;;;;;;;18.49;71.04;100481.47;5034561;28;20451;-69
2023/08/17 02:01:40;;;;;;;0.30;0.30;;;;;;;18.50;71.53;100485.06;5026575;28;20062;-72
2023/08/17 02:04:06;;;;;;;0.20;0.20;;;;;;;18.50;70.13;100482.28;5028866;28;20049;-72
2023/08/17 02:06:32;;;;;;;0.40;0.40;;;;;;;18.47;71.05;100482.91;5035136;28;20049;-69
2023/08/17 02:08:58;;;;;;;0.30;0.30;;;;;;;18.46;71.17;100493.16;5032688;28;20049;-72
2023/08/17 02:11:25;;;;;;;0.20;0.20;;;;;;;18.43;72.20;100483.53;5036839;28;20056;-71
2023/08/17 02:13:52;;;;;;;0.20;0.20;;;;;;;18.43;71.66;100482.72;5031457;28;20045;-71
2023/08/17 02:16:20;;;;;;;0.20;0.20;;;;;;;18.41;72.61;100480.25;5018148;28;20811;-72
2023/08/17 02:18:46;;;;;;;0.20;0.20;;;;;;;18.49;73.15;100489.78;5034351;28;20135;-71
2023/08/17 02:21:12;;;;;;;0.30;0.30;;;;;;;18.51;73.21;100487.50;5032982;28;20151;-72
2023/08/17 02:23:39;;;;;;;;;;;;;;;18.54;73.26;100491.59;5018464;28;20050;-72
2023/08/17 02:26:05;;;;;;;0.20;0.20;;;;;;;18.58;73.12;100489.84;5060127;28;20011;-72
2023/08/17 02:28:31;;;;;;;0.20;0.20;;;;;;;18.62;73.22;100496.38;5036325;28;20042;-71
2023/08/17 02:30:59;;;;;;;0.20;0.20;;;;;;;18.62;73.39;100488.06;5017481;28;20056;-72
2023/08/17 02:33:29;;;;;;;0.20;0.20;;;;;;;18.67;73.84;100493.50;5031933;28;20056;-71
2023/08/17 02:35:55;;;;;;;0.20;0.20;;;;;;;18.69;73.76;100498.72;5033999;28;20060;-70
2023/08/17 02:38:22;;;;;;;0.20;0.20;;;;;;;18.74;74.10;100495.84;5026298;28;20420;-72
2023/08/17 02:40:49;;;;;;;0.22;0.22;;;;;;;18.77;74.37;100494.38;5033216;28;20559;-73
2023/08/17 02:43:15;;;;;;;0.30;0.30;;;;;;;18.79;74.76;100495.72;5031047;28;20041;-70
2023/08/17 02:45:41;;;;;;;0.20;0.20;;;;;;;18.81;74.72;100499.00;5039899;28;20072;-71
2023/08/17 02:48:08;;;;;;;0.20;0.20;;;;;;;18.84;74.85;100498.38;5030889;28;20080;-70
2023/08/17 02:50:35;;;;;;;0.20;0.20;;;;;;;18.90;75.20;100495.50;5033439;28;20049;-72
2023/08/17 02:53:02;;;;;;;0.30;0.30;;;;;;;18.91;75.35;100489.63;5022040;28;20053;-70
2023/08/17 02:55:29;;;;;;;0.30;0.30;;;;;;;18.96;75.51;100508.06;5032400;28;20052;-75
2023/08/17 02:57:55;;;;;;;0.30;0.30;;;;;;;18.96;75.42;100500.56;5039927;28;20140;-71
2023/08/17 03:00:21;;;;;;;0.30;0.30;;;;;;;19.01;75.09;100502.41;5031911;28;20053;-70
2023/08/17 03:02:48;;;;;;;0.20;0.20;;;;;;;19.04;75.41;100506.53;5029619;28;20095;-71
2023/08/17 03:05:14;;;;;;;0.30;0.30;;;;;;;19.06;75.05;100496.78;5021005;28;20049;-72
2023/08/17 03:07:42;;;;;;;0.30;0.30;;;;;;;19.13;75.35;100504.66;5017027;28;20075;-72
2023/08/17 03:10:08;;;;;;;0.30;0.30;;;;;;;19.18;75.70;100495.34;5034695;28;20073;-71
2023/08/17 03:12:34;;;;;;;0.30;0.30;;;;;;;19.20;75.10;100502.22;5051850;28;20516;-73
2023/08/17 03:15:01;;;;;;;0.30;0.30;;;;;;;19.20;74.94;100493.91;5035667;28;20315;-70
2023/08/17 03:17:30;;;;;;;0.30;0.30;;;;;;;19.22;74.97;100496.38;5036217;28;20515;-71
2023/08/17 03:19:59;;;;;;;0.30;0.30;;;;;;;19.27;74.35;100499.81;5034442;28;20144;-69
2023/08/17 03:22:26;;;;;;;0.30;0.30;;;;;;;19.31;75.04;100505.56;5033171;28;20057;-72
2023/08/17 03:24:55;;;;;;;0.30;0.30;;;;;;;19.34;74.99;100493.81;5019131;28;20044;-69
2023/08/17 03:27:21;;;;;;;0.40;0.40;;;;;;;19.44;74.52;100497.47;5029593;28;20087;-69
2023/08/17 03:29:47;;;;;;;0.30;0.30;;;;;;;19.52;74.97;100507.81;5022896;28;20045;-71
2023/08/17 03:32:13;;;;;;;0.30;0.30;;;;;;;19.57;74.92;100502.13;5034788;28;20049;-70
2023/08/17 03:34:39;;;;;;;0.30;0.30;;;;;;;19.64;75.23;100498.88;5039657;28;20621;-71
2023/08/17 03:37:06;;;;;;;;;;;;;;;19.71;74.99;100507.56;5030322;28;20133;-70
2023/08/17 03:39:33;;;;;;;0.30;0.30;;;;;;;19.75;75.08;100508.56;5003364;28;20355;-71
2023/08/17 03:42:00;;;;;;;0.30;0.30;;;;;;;19.81;74.89;100503.66;5030662;28;20304;-71
2023/08/17 03:44:27;;;;;;;0.30;0.30;;;;;;;19.90;74.78;100506.47;5019473;28;20045;-72
2023/08/17 03:46:53;;;;;;;0.30;0.30;;;;;;;19.95;75.38;100504.41;5025483;28;20053;-71
2023/08/17 03:49:19;;;;;;;0.30;0.30;;;;;;;20.04;73.86;100503.63;5034329;28;20057;-72
2023/08/17 03:51:45;;;;;;;0.30;0.30;;;;;;;20.11;74.37;100502.03;5029997;28;20037;-71
2023/08/17 03:54:13;;;;;;;0.47;0.40;;;;;;;20.23;73.66;100508.91;5024639;28;20487;-71
2023/08/17 03:56:39;;;;;;;0.30;0.30;;;;;;;20.28;73.81;100505.97;5036294;28;20049;-71
2023/08/17 03:59:06;;;;;;;0.30;0.30;;;;;;;20.34;73.54;100513.00;5030929;28;20115;-72
2023/08/17 04:01:33;;;;;;;0.30;0.30;;;;;;;20.36;72.30;100504.34;5013995;28;20273;-71
2023/08/17 04:03:59;;;;;;;0.30;0.30;;;;;;;20.45;72.41;100501.59;5032938;28;20042;-71
2023/08/17 04:06:26;;;;;;;0.30;0.30;;;;;;;20.50;72.09;100499.47;5034925;28;20045;-72
2023/08/17 04:08:52;;;;;;;0.40;0.40;;;;;;;20.53;71.28;100507.16;5027540;28;20148;-71
2023/08/17 04:11:18;;;;;;;0.30;0.30;;;;;;;20.51;70.12;100500.28;5037138;28;20046;-72
2023/08/17 04:13:46;;;;;;;0.30;0.30;;;;;;;20.58;70.17;100508.97;5023008;28;20084;-75
2023/08/17 04:16:14;;;;;;;0.30;0.30;;;;;;;20.60;69.48;100503.88;5031733;28;20052;-75
2023/08/17 04:18:40;;;;;;;0.30;0.30;;;;;;;20.65;69.17;100511.25;5028820;28;20077;-74
2023/08/17 04:21:06;;;;;;;0.30;0.30;;;;;;;20.68;68.15;100511.44;5031144;28;21068;-75
2023/08/17 04:23:32;;;;;;;0.30;0.30;;;;;;;20.76;68.60;100512.56;5016369;28;20041;-75
2023/08/17 04:25:58;;;;;;;0.30;0.30;;;;;;;20.82;68.18;100510.44;5031748;28;20045;-75
2023/08/17 04:28:25;;;;;;;0.30;0.30;;;;;;;20.90;68.74;100515.19;5033763;28;20079;-74
2023/08/17 04:30:52;;;;;;;0.30;0.30;;;;;;;20.94;68.08;100512.59;5024619;28;20057;-75
2023/08/17 04:33:20;;;;;;;0.30;0.30;;;;;;;21.05;66.91;100524.19;5033258;28;20045;-75
2023/08/17 04:35:48;;;;;;;0.30;0.30;;;;;;;21.16;66.82;100522.72;5027220;28;20164;-74
2023/08/17 04:38:14;;;;;;;0.30;0.30;;;;;;;21.26;65.89;100513.19;5042732;28;20072;-74
2023/08/17 04:40:41;;;;;;;0.30;0.30;;;;;;;21.33;64.42;100530.19;5037497;28;20073;-75
2023/08/17 04:43:09;;;;;;;0.30;0.30;;;;;;;21.38;65.05;100526.41;5038051;28;20091;-75
2023/08/17 04:45:36;;;;;;;0.30;0.30;;;;;;;21.44;64.85;100521.50;5026099;28;20572;-75
2023/08/17 04:48:02;;;;;;;0.30;0.30;;;;;;;21.49;64.13;100515.75;5038221;28;20041;-75
2023/08/17 04:50:31;;;;;;;0.30;0.30;;;;;;;21.51;64.41;100519.84;5036265;28;20099;-75
2023/08/17 04:52:58;;;;;;;0.30;0.30;;;;;;;21.54;64.88;100523.91;5024535;28;20097;-75
2023/08/17 04:55:25;;;;;;;0.30;0.30;;;;;;;21.60;65.07;100513.41;5037563;28;20043;-75
2023/08/17 04:57:51;;;;;;;0.30;0.30;;;;;;;21.69;63.68;100517.03;5032151;28;20543;-77
2023/08/17 05:00:19;;;;;;;0.30;0.30;;;;;;;21.77;63.89;100520.94;5031142;28;20057;-76
2023/08/17 05:02:46;;;;;;;0.30;0.30;;;;;;;21.84;62.53;100517.63;5014275;28;20077;-72
2023/08/17 05:05:13;;;;;;;0.30;0.30;;;;;;;21.87;62.12;100525.31;5033869;28;20053;-73
2023/08/17 05:07:41;;;;;;;0.30;0.30;;;;;;;21.96;61.78;100521.31;5031388;28;20539;-71
2023/08/17 05:10:08;;;;;;;0.30;0.30;;;;;;;22.01;61.08;100525.06;5027641;28;20041;-71
2023/08/17 05:12:37;;;;;;;0.30;0.30;;;;;;;22.03;60.45;100525.56;5032752;28;20069;-72
2023/08/17 05:15:04;;;;;;;0.30;0.30;;;;;;;22.04;59.09;100519.66;5028155;28;20132;-72
2023/08/17 05:17:30;;;;;;;;;;;;;;;22.07;59.88;100518.16;5046678;28;20069;-70
2023/08/17 05:19:56;;;;;;;0.30;0.30;;;;;;;22.12;58.89;100520.75;5039337;28;20391;-71
2023/08/17 05:22:23;;;;;;;0.30;0.30;;;;;;;22.17;59.88;100523.38;5032345;28;20334;-75
2023/08/17 05:24:52;;;;;;;0.30;0.30;;;;;;;22.26;58.26;100520.53;5016862;28;20045;-75
2023/08/17 05:27:19;;;;;;;0.30;0.30;;;;;;;22.38;57.41;100517.00;5002613;28;20094;-75
2023/08/17 05:29:46;;;;;;;0.30;0.30;;;;;;;22.44;57.98;100534.34;5028048;28;20045;-75
2023/08/17 05:32:12;;;;;;;0.30;0.30;;;;;;;22.50;57.35;100525.47;5019412;28;20114;-75
2023/08/17 05:34:39;;;;;;;0.30;0.30;;;;;;;22.54;57.61;100522.81;5017978;28;20099;-72
2023/08/17 05:37:05;;;;;;;0.30;0.30;;;;;;;22.60;56.64;100523.44;5028078;28;20057;-71
2023/08/17 05:39:31;;;;;;;0.30;0.30;;;;;;;22.61;55.68;100520.31;5036435;28;20045;-71
2023/08/17 05:41:59;;;;;;;0.30;0.30;;;;;;;22.65;55.11;100517.66;5035067;28;20858;-71
2023/08/17 05:44:27;;;;;;;0.30;0.30;;;;;;;22.69;55.43;100515.00;5031372;28;20055;-70
2023/08/17 05:46:53;;;;;;;0.30;0.30;;;;;;;22.67;55.58;100518.13;5022044;28;20112;-70
2023/08/17 05:49:19;;;;;;;0.30;0.30;;;;;;;22.71;55.74;100516.28;5033870;28;20049;-72
2023/08/17 05:51:46;;;;;;;0.30;0.30;;;;;;;22.79;56.37;100517.38;5035602;28;20045;-72
2023/08/17 05:54:12;;;;;;;0.30;0.30;;;;;;;22.88;55.57;100518.13;5027739;28;20041;-72
2023/08/17 05:56:44;;;;;;;0.30;0.30;;;;;;;22.90;54.82;100524.19;5037226;28;20055;-72
2023/08/17 05:59:12;;;;;;;0.30;0.30;;;;;;;22.95;55.90;100517.59;5027540;28;20048;-71
2023/08/17 06:01:38;;;;;;;0.30;0.30;;;;;;;22.95;54.78;100517.59;5030726;28;20171;-71
2023/08/17 06:04:05;;;;;;;0.30;0.30;;;;;;;23.01;54.71;100519.00;5040387;28;20049;-72
2023/08/17 06:06:32;;;;;;;0.30;0.30;;;;;;;23.19;54.14;100524.41;5027173;28;20528;-71
2023/08/17 06:08:58;;;;;;;0.30;0.30;;;;;;;23.38;52.82;100518.34;5031867;28;20072;-71
2023/08/17 06:11:24;;;;;;;0.30;0.30;;;;;;;23.61;52.08;100513.16;5038375;28;20668;-71
2023/08/17 06:13:51;;;;;;;0.30;0.30;;;;;;;23.86;51.20;100515.94;5037726;28;20582;-71
2023/08/17 06:16:18;;;;;;;0.30;0.30;;;;;;;24.03;50.10;100511.31;5031248;28;20052;-70
2023/08/17 06:18:45;;;;;;;0.30;0.30;;;;;;;24.31;50.33;100519.81;5041218;28;20055;-72
2023/08/17 06:21:12;;;;;;;0.30;0.30;;;;;;;24.53;49.23;100514.88;5035090;28;20041;-71
2023/08/17 06:23:38;;;;;;;0.30;0.30;;;;;;;24.74;48.77;100519.47;5036403;28;20041;-72
2023/08/17 06:26:04;;;;;;;0.40;0.40;;;;;;;24.78;48.10;100515.63;5037396;28;20040;-71
2023/08/17 06:28:30;;;;;;;0.30;0.30;;;;;;;24.75;48.40;100516.31;5031826;28;21064;-73
2023/08/17 06:30:57;;;;;;;0.30;0.30;;;;;;;24.78;48.41;100512.06;5038048;28;20303;-71
2023/08/17 06:33:24;;;;;;;0.40;0.40;;;;;;;24.82;47.96;100510.16;5033981;28;20052;-72
2023/08/17 06:35:50;;;;;;;0.40;0.40;;;;;;;24.95;47.67;100512.91;5025320;28;20049;-71
2023/08/17 06:38:17;;;;;;;0.30;0.30;;;;;;;24.99;47.74;100514.66;5034864;28;20048;-72
2023/08/17 06:40:43;;;;;;;0.40;0.40;;;;;;;25.02;47.20;100513.94;5035777;28;20048;-71
2023/08/17 06:43:09;;;;;;;0.40;0.40;;;;;;;25.19;46.95;100509.97;5037818;28;20045;-71
2023/08/17 06:45:35;;;;;;;0.40;0.40;;;;;;;25.30;46.91;100509.47;5026907;28;20044;-72
2023/08/17 06:48:02;;;;;;;0.40;0.40;;;;;;;25.43;46.48;100513.00;5030178;28;20463;-72
2023/08/17 06:50:29;;;;;;;0.73;0.40;;;;;;;25.58;45.68;100514.22;5040630;28;20629;-72
2023/08/17 06:52:56;;;;;;;0.40;0.40;;;;;;;25.68;45.16;100516.50;5032690;28;20053;-71
2023/08/17 06:55:22;;;;;;;0.40;0.40;;;;;;;25.80;44.79;100521.19;5052763;28;20049;-72
2023/08/17 06:57:51;;;;;;;0.40;0.40;;;;;;;25.99;44.49;100514.03;5031813;28;20144;-71
2023/08/17 07:00:20;;;;;;;0.40;0.40;;;;;;;26.11;43.83;100513.94;5039321;28;20061;-71
2023/08/17 07:02:47;;;;;;;0.40;0.40;;;;;;;26.11;44.09;100513.09;5025630;28;20116;-71
2023/08/17 07:05:14;;;;;;;0.40;0.40;;;;;;;26.07;44.30;100506.63;5021173;28;20160;-75
2023/08/17 07:07:42;;;;;;;;;;;;;;;26.05;44.36;100502.19;5026314;28;20071;-74
2023/08/17 07:10:09;;;;;;;0.40;0.40;;;;;;;25.99;43.96;100514.03;5035167;28;20406;-73
2023/08/17 07:12:35;;;;;;;0.30;0.30;;;;;;;25.97;43.82;100500.38;5036045;28;20045;-74
2023/08/17 07:15:01;;;;;;;0.30;0.30;;;;;;;26.04;43.65;100500.56;5033436;28;20163;-74
2023/08/17 07:17:27;;;;;;;0.40;0.40;;;;;;;26.09;42.98;100504.25;5037097;28;20307;-74
2023/08/17 07:19:54;;;;;;;0.50;0.50;;;;;;;26.28;42.92;100509.16;5034102;28;20054;-74
2023/08/17 07:22:22;;;;;;;0.50;0.50;;;;;;;26.46;40.84;100501.94;5020756;28;20055;-74
2023/08/17 07:24:49;;;;;;;0.40;0.40;;;;;;;26.49;40.89;100503.22;5041587;28;20044;-70
2023/08/17 07:27:16;;;;;;;0.40;0.40;;;;;;;26.76;40.66;100504.19;5030422;28;20063;-72
2023/08/17 07:29:42;;;;;;;0.40;0.40;;;;;;;26.99;40.07;100500.63;5034087;28;20049;-72
2023/08/17 07:32:08;;;;;;;0.40;0.40;;;;;;;27.13;40.65;100507.72;5033829;28;20049;-72
2023/08/17 07:34:36;;;;;;;0.40;0.40;;;;;;;27.28;40.18;100509.59;5007672;28;20383;-72
2023/08/17 07:37:05;;;;;;;0.50;0.50;;;;;;;27.49;38.94;100507.56;5031870;28;20068;-71
2023/08/17 07:39:31;;;;;;;0.50;0.50;;;;;;;27.58;38.11;100499.75;5036896;28;20056;-72
2023/08/17 07:41:59;;;;;;;0.50;0.50;;;;;;;27.72;37.73;100507.59;5035889;28;20056;-74
2023/08/17 07:44:25;;;;;;;0.50;0.50;;;;;;;27.77;37.77;100504.47;5034409;28;20299;-72
2023/08/17 07:46:51;;;;;;;0.40;0.40;;;;;;;27.83;38.82;100502.16;5043189;28;20558;-72
2023/08/17 07:49:18;;;;;;;0.40;0.40;;;;;;;27.97;39.16;100499.56;5051419;28;20096;-74
2023/08/17 07:51:44;;;;;;;0.50;0.50;;;;;;;28.12;39.86;100506.22;5030394;28;20052;-74
2023/08/17 07:54:10;;;;;;;0.40;0.40;;;;;;;28.23;38.91;100497.97;5032249;28;20195;-73
2023/08/17 07:56:37;;;;;;;0.40;0.40;;;;;;;28.32;38.63;100503.31;5033962;28;20416;-74
2023/08/17 07:59:05;;;;;;;0.43;0.43;;;;;;;28.52;37.79;100503.19;5034579;28;21112;-74
2023/08/17 08:01:31;;;;;;;0.50;0.50;;;;;;;28.42;37.76;100504.66;5036327;28;20041;-73
2023/08/17 08:03:58;;;;;;;0.50;0.50;;;;;;;28.48;38.25;100502.34;5043181;28;20037;-74
2023/08/17 08:06:24;;;;;;;0.50;0.50;;;;;;;28.62;37.91;100499.72;5034382;28;20296;-73
2023/08/17 08:08:50;;;;;;;0.50;0.50;;;;;;;28.77;37.79;100500.69;5033312;28;20041;-74
2023/08/17 08:11:16;;;;;;;0.60;0.60;;;;;;;28.83;36.51;100504.00;5016282;28;20462;-71
2023/08/17 08:13:42;;;;;;;0.50;0.50;;;;;;;28.91;36.72;100491.66;5031088;28;20032;-74
2023/08/17 08:16:10;;;;;;;0.60;0.60;;;;;;;28.91;36.19;100491.66;5018181;28;20041;-74
2023/08/17 08:18:37;;;;;;;0.50;0.50;;;;;;;29.00;35.24;100489.31;5012428;28;20071;-74
2023/08/17 08:21:03;;;;;;;0.50;0.50;;;;;;;29.23;35.32;100504.44;5037100;28;20041;-73
2023/08/17 08:23:29;;;;;;;0.50;0.50;;;;;;;29.79;33.98;100496.94;5029955;28;20041;-73
2023/08/17 08:25:56;;;;;;;0.50;0.50;;;;;;;30.07;33.28;100492.72;5034195;28;20128;-73
2023/08/17 08:28:22;;;;;;;0.50;0.50;;;;;;;30.43;32.50;100495.75;5030408;28;20425;-73
2023/08/17 08:30:48;;;;;;;0.57;0.57;;;;;;;30.61;32.41;100480.94;5029796;28;20041;-74
2023/08/17 08:33:15;;;;;;;0.50;0.50;;;;;;;30.82;31.60;100487.91;5034642;28;20064;-71
2023/08/17 08:35:41;;;;;;;0.50;0.50;;;;;;;31.00;31.36;100487.97;5029827;28;20335;-73
2023/08/17 08:38:10;;;;;;;0.50;0.50;;;;;;;31.16;31.17;100498.09;5057860;28;20556;-72
2023/08/17 08:40:38;;;;;;;0.60;0.60;;;;;;;31.11;30.89;100474.66;5020186;28;20049;-70
2023/08/17 08:43:04;;;;;;;0.50;0.50;;;;;;;31.34;30.92;100486.81;5052398;28;20508;-73
2023/08/17 08:45:31;;;;;;;0.50;0.50;;;;;;;31.59;30.95;100484.00;5031553;28;20183;-72
2023/08/17 08:48:00;;;;;;;0.50;0.50;;;;;;;32.06;29.98;100480.34;5035895;28;20041;-74
2023/08/17 08:50:32;;;;;;;0.60;0.60;;;;;;;32.55;29.25;100486.31;5015001;28;20135;-73
2023/08/17 08:53:00;;;;;;;0.60;0.60;;;;;;;32.97;28.47;100478.03;4996638;28;20586;-74
2023/08/17 08:55:30;;;;;;;0.60;0.60;;;;;;;33.05;28.15;100478.81;5026991;28;20527;-73
2023/08/17 08:57:58;;;;;;;0.60;0.60;;;;;;;32.56;29.10;100470.16;5030154;28;20041;-74
2023/08/17 09:00:25;;;;;;;0.60;0.60;;;;;;;32.44;29.11;100482.72;5032474;28;20045;-73
2023/08/17 09:02:53;;;;;;;0.60;0.60;;;;;;;32.65;29.43;100470.50;5011526;28;20042;-74
2023/08/17 09:05:21;;;;;;;0.60;0.60;;;;;;;32.93;29.14;100472.41;5026846;28;20038;-70
2023/08/17 09:07:50;;;;;;;0.60;0.60;;;;;;;33.00;28.05;100467.94;5033398;28;20041;-71
2023/08/17 09:10:18;;;;;;;0.60;0.60;;;;;;;32.99;28.43;100464.28;5019024;28;20583;-70
2023/08/17 09:12:49;;;;;;;0.60;0.60;;;;;;;33.28;27.92;100469.75;5022402;28;20043;-71
2023/08/17 09:15:16;;;;;;;0.60;0.60;;;;;;;33.40;27.64;100467.66;5036761;28;20574;-71
2023/08/17 09:17:44;;;;;;;0.60;0.60;;;;;;;32.84;28.57;100462.72;5014846;28;20048;-71
2023/08/17 09:20:11;;;;;;;0.60;0.60;;;;;;;32.88;28.82;100463.53;5015191;28;20583;-72
2023/08/17 09:22:39;;;;;;;0.60;0.60;;;;;;;33.08;27.80;100463.81;5038601;28;20128;-70
2023/08/17 09:25:07;;;;;;;0.68;0.68;;;;;;;33.08;28.11;100463.81;5003453;28;20080;-71
2023/08/17 09:27:34;;;;;;;0.60;0.60;;;;;;;33.33;27.99;100460.81;5040443;28;20044;-70
2023/08/17 09:30:05;;;;;;;0.80;0.80;;;;;;;33.81;27.40;100464.09;5036217;28;20179;-70
2023/08/17 09:32:31;;;;;;;0.73;0.73;;;;;;;33.68;27.36;100468.66;5041877;28;20048;-70
2023/08/17 09:35:00;;;;;;;;;;;;;;;33.41;27.47;100464.41;5030118;28;20124;-69
2023/08/17 09:37:27;;;;;;;0.80;0.80;;;;;;;33.52;26.91;100462.28;5058402;28;19929;-69
2023/08/17 09:39:55;;;;;;;0.80;0.80;;;;;;;33.66;26.65;100454.91;5023381;28;20057;-71
2023/08/17 09:42:23;;;;;;;0.70;0.70;;;;;;;33.87;26.48;100455.91;5023171;28;20050;-70
2023/08/17 09:44:49;;;;;;;0.80;0.80;;;;;;;34.19;25.82;100457.66;5048136;28;20072;-70
2023/08/17 09:47:17;;;;;;;0.80;0.80;;;;;;;34.51;25.93;100450.81;5042106;28;20566;-70
2023/08/17 09:49:48;;;;;;;0.80;0.80;;;;;;;34.71;25.76;100444.44;5043592;28;20462;-70
2023/08/17 09:52:15;;;;;;;0.70;0.70;;;;;;;34.77;26.41;100459.75;5036711;28;20072;-70
2023/08/17 09:54:43;;;;;;;0.70;0.70;;;;;;;35.05;25.73;100454.94;5032436;28;20044;-71
2023/08/17 09:57:10;;;;;;;0.80;0.80;;;;;;;35.43;25.76;100451.09;5029636;28;20056;-68
2023/08/17 09:59:37;;;;;;;0.75;0.75;;;;;;;35.65;25.23;100447.88;5034439;28;20044;-69
2023/08/17 10:02:09;;;;;;;0.80;0.80;;;;;;;35.87;24.27;100451.97;5035054;28;20045;-70
2023/08/17 10:04:36;;;;;;;0.90;0.90;;;;;;;35.81;24.42;100447.22;5033971;28;20095;-69
2023/08/17 10:07:05;;;;;;;0.80;0.80;;;;;;;35.69;24.35;100448.66;5033020;28;20041;-71
2023/08/17 10:09:37;;;;;;;0.80;0.80;;;;;;;35.85;24.16;100447.94;5014180;28;20077;-71
2023/08/17 10:12:11;;;;;;;0.88;0.88;;;;;;;35.92;24.48;100442.91;5013724;28;20636;-70
2023/08/17 10:14:46;;;;;;;0.80;0.80;;;;;;;35.86;24.28;100438.97;5029034;28;20492;-68
2023/08/17 10:17:19;;;;;;;0.80;0.80;;;;;;;35.61;24.95;100436.59;5021519;28;20143;-69
2023/08/17 10:19:53;;;;;;;0.70;0.70;;;;;;;35.58;24.74;100441.09;5035400;28;20037;-71
2023/08/17 10:22:26;;;;;;;0.70;0.70;;;;;;;35.98;24.40;100440.38;5023890;28;20053;-70
2023/08/17 10:24:58;;;;;;;0.70;0.70;;;;;;;36.29;24.06;100439.38;5035356;28;20459;-71
2023/08/17 10:27:25;;;;;;;0.70;0.70;;;;;;;36.11;23.81;100436.91;5017736;28;20036;-70
2023/08/17 10:29:53;;;;;;;0.70;0.70;;;;;;;35.75;24.65;100438.38;5019890;28;20191;-69
2023/08/17 10:32:21;;;;;;;0.70;0.70;;;;;;;35.86;24.31;100435.31;5029854;28;20042;-70
2023/08/17 10:34:49;;;;;;;0.70;0.70;;;;;;;35.47;24.61;100446.13;5032304;28;20420;-70
2023/08/17 10:37:17;;;;;;;0.70;0.70;;;;;;;35.61;24.21;100442.28;5031158;28;20048;-71
2023/08/17 10:39:46;;;;;;;0.80;0.80;;;;;;;35.88;23.79;100439.34;5023777;28;20037;-72
2023/08/17 10:42:13;;;;;;;0.90;0.90;;;;;;;36.63;23.22;100440.31;5023060;28;20546;-69
2023/08/17 10:44:41;;;;;;;0.90;0.90;;;;;;;37.07;23.00;100431.59;5022189;28;20102;-72
2023/08/17 10:47:23;;;;;;;1.00;1.00;;;;;;;37.11;23.24;100438.03;5000901;28;20052;-73
2023/08/17 10:49:50;;;;;;;0.90;0.90;;;;;;;37.06;23.36;100432.84;5012381;28;20037;-71
2023/08/17 10:52:29;;;;;;;1.00;1.00;;;;;;;37.12;22.72;100437.56;5031546;28;20044;-73
2023/08/17 10:54:56;;;;;;;1.00;1.00;;;;;;;37.44;22.30;100433.13;5036578;28;20512;-73
2023/08/17 10:57:32;;;;;;;1.10;1.10;;;;;;;37.69;22.27;100408.88;5029984;28;20634;-70
2023/08/17 11:00:16;;;;;;;1.10;1.10;;;;;;;38.61;21.53;100433.59;5040832;28;20068;-72
2023/08/17 11:02:54;;;;;;;1.20;1.20;;;;;;;39.10;20.70;100429.63;5034104;28;20049;-71
2023/08/17 11:05:38;;;;;;;1.10;1.10;;;;;;;39.89;20.03;100425.34;5030207;28;20054;-73
2023/08/17 11:08:05;;;;;;;1.20;1.20;;;;;;;40.23;19.27;100417.94;5015983;28;20044;-73
2023/08/17 11:10:33;;;;;;;1.30;1.20;;;;;;;40.57;18.62;100409.75;5049874;28;20061;-73
2023/08/17 11:12:59;;;;;;;1.40;1.30;;;;;;;41.05;18.48;100411.53;5043721;28;20041;-74
2023/08/17 11:15:37;;;;;;;1.40;1.30;;;;;;;41.46;18.48;100411.47;5041590;28;20088;-72
2023/08/17 11:18:07;;;;;;;1.40;1.30;;;;;;;41.13;18.16;100394.81;5045026;28;20500;-69
2023/08/17 11:20:33;;;;;;;1.50;1.40;;;;;;;40.60;18.12;100408.78;5018953;28;20095;-70
2023/08/17 11:23:00;;;;;;;1.40;1.30;;;;;;;40.15;18.47;100402.34;5031350;28;20512;-71
2023/08/17 11:25:26;;;;;;;;;;;;;;;40.13;19.06;100402.00;5039272;28;20045;-71
2023/08/17 11:27:54;;;;;;;1.50;1.40;;;;;;;40.38;18.07;100401.06;5036880;28;19961;-71